Alamogordo/Holloman AFB, New Mexico
Current Conditions -  °F | °C
As of 7:58 PM on Friday 28 Nov 2014 (Local Time) from KHMN Reporting Station
Clear Clear  
Wind Chill: 40°   Ceiling: Unl
Heat Index: 44°   Visibility: 10mi
Dew Point: 18°   Wind: 7mph
Humidity: 35%   Direction: 130°SE
Pressure: 30.07"   Gusts: NA
Location:  32.85°N, 106.1°W
Report Text: KHMN 290258Z AUTO 13006KT 10SM CLR 07/M08 A3007 RMK AO2 SLP168 T00661078 58001 $
Loading
Personal Weather Stations






























Interactive Weather Map New forecast layout! Learn more

10-Day Weather Forecast

Advertisements
Track Severe Weather on mobile